Time;durP1;ratioP1;P1;durP2;ratioP2;P2;SDS_P1;SDS_P2;PMS_P1;PMS_P2;Temp;Humidity;BMP_temperature;BMP_pressure;BME280_temperature;BME280_humidity;BME280_pressure;Samples;Min_cycle;Max_cycle;Signal;HPM_P1;HPM_P2
2022/07/01 00:02:15;;;;;;;78.60;39.33;;;18.30;99.90;;;;;;6279047;22;20143;-83
2022/07/01 00:04:41;;;;;;;75.60;35.17;;;18.30;99.90;;;;;;6279502;22;20477;-84
2022/07/01 00:07:06;;;;;;;74.73;33.33;;;18.30;99.90;;;;;;6278963;22;20504;-83
2022/07/01 00:09:32;;;;;;;73.40;29.37;;;18.40;99.90;;;;;;6278591;22;20167;-84
2022/07/01 00:11:58;;;;;;;75.70;35.83;;;18.40;99.90;;;;;;6278842;22;20292;-83
2022/07/01 00:14:23;;;;;;;72.23;26.67;;;18.40;99.90;;;;;;6278432;22;20261;-83
2022/07/01 00:16:50;;;;;;;72.47;24.10;;;18.30;99.90;;;;;;6279200;22;20155;-83
2022/07/01 00:19:17;;;;;;;75.97;34.80;;;18.20;99.90;;;;;;6251465;22;20147;-83
2022/07/01 00:21:43;;;;;;;74.97;34.83;;;18.20;99.90;;;;;;6252911;22;20377;-84
2022/07/01 00:24:08;;;;;;;75.10;33.37;;;18.20;99.90;;;;;;6279096;22;20382;-83
2022/07/01 00:26:34;;;;;;;72.97;27.23;;;18.30;99.90;;;;;;6278884;22;20357;-83
2022/07/01 00:29:00;;;;;;;75.57;36.63;;;18.30;99.90;;;;;;6279298;22;20608;-83
2022/07/01 00:31:25;;;;;;;73.23;27.30;;;18.30;99.90;;;;;;6251290;22;20193;-83
2022/07/01 00:33:51;;;;;;;77.90;36.37;;;18.30;99.90;;;;;;6278975;22;20603;-83
2022/07/01 00:36:17;;;;;;;73.23;27.53;;;18.20;99.90;;;;;;6251225;22;20481;-83
2022/07/01 00:38:42;;;;;;;79.07;32.67;;;18.20;99.90;;;;;;6278936;22;20135;-83
2022/07/01 00:41:08;;;;;;;76.23;35.23;;;18.20;99.90;;;;;;6252568;22;20201;-83
2022/07/01 00:43:38;;;;;;;76.30;35.40;;;18.20;99.90;;;;;;6279696;22;20143;-83
2022/07/01 00:46:04;;;;;;;76.10;37.10;;;18.20;99.90;;;;;;6278398;22;20140;-83
2022/07/01 00:48:32;;;;;;;79.33;36.93;;;18.20;99.90;;;;;;6278638;22;20858;-83
2022/07/01 00:50:58;;;;;;;74.33;32.57;;;18.20;99.90;;;;;;6278873;22;20747;-83
2022/07/01 00:53:25;;;;;;;75.07;34.27;;;18.20;99.90;;;;;;6251350;22;20370;-84
2022/07/01 00:55:50;;;;;;;77.53;42.13;;;18.20;99.90;;;;;;6252315;22;20862;-83
2022/07/01 00:58:16;;;;;;;81.10;44.83;;;18.20;99.90;;;;;;6279126;22;20385;-83
2022/07/01 01:00:43;;;;;;;88.53;59.70;;;18.20;99.90;;;;;;6252629;22;20685;-84
2022/07/01 01:03:12;;;;;;;81.03;50.20;;;18.20;99.90;;;;;;6279921;22;20354;-84
2022/07/01 01:05:38;;;;;;;80.70;50.83;;;18.20;99.90;;;;;;6279818;22;20366;-84
2022/07/01 01:08:06;;;;;;;82.60;53.33;;;18.20;99.90;;;;;;6252174;22;20472;-85
2022/07/01 01:10:32;;;;;;;77.57;35.67;;;18.20;99.90;;;;;;6278932;22;20374;-83
2022/07/01 01:12:58;;;;;;;83.03;54.47;;;18.10;99.90;;;;;;6279403;22;20362;-83
2022/07/01 01:15:23;;;;;;;92.83;80.47;;;18.10;99.90;;;;;;6280189;22;20210;-85
2022/07/01 01:17:50;;;;;;;83.97;57.63;;;18.00;99.90;;;;;;6252286;22;20198;-85
2022/07/01 01:20:17;;;;;;;84.00;45.70;;;18.00;99.90;;;;;;6279237;22;20193;-84
2022/07/01 01:22:44;;;;;;;83.70;51.00;;;18.00;99.90;;;;;;6278983;22;20445;-85
2022/07/01 01:25:10;;;;;;;85.60;62.37;;;18.00;99.90;;;;;;6279120;22;20386;-84
2022/07/01 01:27:37;;;;;;;85.13;59.13;;;17.90;99.90;;;;;;6226348;22;20402;-84
2022/07/01 01:30:05;;;;;;;82.37;50.00;;;18.00;99.90;;;;;;6252472;22;20915;-84
2022/07/01 01:32:31;;;;;;;86.70;57.37;;;18.00;99.90;;;;;;6251853;22;20417;-84
2022/07/01 01:34:56;;;;;;;85.00;57.03;;;17.90;99.90;;;;;;6251755;22;20366;-84
2022/07/01 01:37:22;;;;;;;89.43;74.63;;;17.80;99.90;;;;;;6278033;22;20454;-84
2022/07/01 01:39:48;;;;;;;82.87;50.07;;;17.80;99.90;;;;;;6278256;22;20145;-85
2022/07/01 01:42:13;;;;;;;97.07;86.70;;;17.70;99.90;;;;;;6251213;22;20151;-85
2022/07/01 01:44:39;;;;;;;100.80;90.37;;;17.60;99.90;;;;;;6278231;22;20143;-85
2022/07/01 01:47:05;;;;;;;86.87;65.77;;;17.70;99.90;;;;;;6278709;22;20163;-85
2022/07/01 01:49:31;;;;;;;83.43;60.10;;;17.70;99.90;;;;;;6249700;22;20155;-83
2022/07/01 01:51:59;;;;;;;90.53;62.17;;;17.60;99.90;;;;;;6278113;22;20160;-84
2022/07/01 01:54:25;;;;;;;81.40;54.43;;;17.60;99.90;;;;;;6278027;22;20400;-84
2022/07/01 01:56:51;;;;;;;89.57;58.90;;;17.70;99.90;;;;;;6277671;22;20913;-84
2022/07/01 01:59:16;;;;;;;85.77;61.93;;;17.50;99.90;;;;;;6278789;22;20362;-84
2022/07/01 02:01:42;;;;;;;83.90;54.20;;;17.50;99.90;;;;;;6250446;22;20147;-84
2022/07/01 02:04:08;;;;;;;81.83;55.87;;;17.50;99.90;;;;;;6277696;22;20146;-84
2022/07/01 02:06:34;;;;;;;87.77;64.57;;;17.40;99.90;;;;;;6278181;22;20144;-85
2022/07/01 02:08:59;;;;;;;83.07;51.50;;;17.40;99.90;;;;;;6278034;22;20419;-84
2022/07/01 02:11:25;;;;;;;86.83;71.90;;;17.30;99.90;;;;;;6250823;22;20682;-85
2022/07/01 02:13:51;;;;;;;82.57;58.10;;;17.30;99.90;;;;;;6278294;22;20163;-84
2022/07/01 02:16:16;;;;;;;81.13;55.97;;;17.40;99.90;;;;;;6278326;22;20511;-83
2022/07/01 02:18:42;;;;;;;83.50;57.77;;;17.30;99.90;;;;;;6277763;22;20147;-84
2022/07/01 02:21:08;;;;;;;88.73;77.37;;;17.40;99.90;;;;;;6278005;22;20211;-84
2022/07/01 02:23:33;;;;;;;92.77;68.33;;;17.40;99.90;;;;;;6278913;22;20147;-84
2022/07/01 02:25:59;;;;;;;84.00;61.90;;;17.40;99.90;;;;;;6282630;22;20281;-85
2022/07/01 02:28:25;;;;;;;82.67;55.73;;;17.40;99.90;;;;;;6313789;22;20162;-85
2022/07/01 02:30:51;;;;;;;81.33;56.60;;;17.50;99.90;;;;;;6317417;22;20177;-85
2022/07/01 02:33:16;;;;;;;84.67;63.67;;;17.40;99.90;;;;;;6317006;22;20139;-85
2022/07/01 02:35:42;;;;;;;85.13;63.27;;;17.40;99.90;;;;;;6317095;22;20198;-85
2022/07/01 02:38:08;;;;;;;85.10;59.77;;;17.30;99.90;;;;;;6316974;22;20155;-85
2022/07/01 02:40:37;;;;;;;80.80;54.37;;;17.40;99.90;;;;;;6289484;22;20153;-85
2022/07/01 02:43:04;;;;;;;78.40;49.13;;;17.30;99.90;;;;;;6317660;22;20364;-85
2022/07/01 02:45:30;;;;;;;81.50;50.90;;;17.30;99.90;;;;;;6289572;22;20917;-85
2022/07/01 02:47:55;;;;;;;82.50;60.93;;;17.10;99.90;;;;;;6317291;22;20753;-85
2022/07/01 02:50:21;;;;;;;78.80;42.87;;;17.10;99.90;;;;;;6317196;22;20415;-85
2022/07/01 02:52:47;;;;;;;80.40;47.00;;;17.10;99.90;;;;;;6320291;22;20162;-85
2022/07/01 02:55:14;;;;;;;79.70;51.30;;;16.90;99.90;;;;;;6290952;22;20595;-85
2022/07/01 02:57:41;;;;;;;82.27;53.53;;;17.00;99.90;;;;;;6316515;22;20423;-85
2022/07/01 03:00:10;;;;;;;85.17;68.93;;;17.00;99.90;;;;;;6317470;22;20361;-85
2022/07/01 03:02:36;;;;;;;83.30;62.57;;;17.00;99.90;;;;;;6316981;22;20444;-85
2022/07/01 03:05:03;;;;;;;86.87;69.37;;;16.90;99.90;;;;;;6289550;22;20383;-85
2022/07/01 03:07:29;;;;;;;86.90;67.37;;;16.90;99.90;;;;;;6289460;22;20397;-85
2022/07/01 03:09:55;;;;;;;82.93;61.97;;;17.00;99.90;;;;;;6316090;22;20511;-85
2022/07/01 03:12:29;;;;;;;86.37;65.67;;;17.00;99.90;;;;;;6316870;22;20162;-85
2022/07/01 03:14:59;;;;;;;91.10;72.20;;;17.00;99.90;;;;;;6316785;22;20349;-85
2022/07/01 03:17:27;;;;;;;80.87;48.63;;;17.00;99.90;;;;;;6289459;22;20389;-85
2022/07/01 03:19:54;;;;;;;83.27;62.67;;;17.10;99.90;;;;;;6263961;22;20373;-85
2022/07/01 03:22:21;;;;;;;90.27;72.53;;;17.10;99.90;;;;;;6315947;22;20372;-85
2022/07/01 03:24:48;;;;;;;83.87;56.20;;;17.10;99.90;;;;;;6316518;22;20387;-85
2022/07/01 03:27:14;;;;;;;83.93;62.40;;;17.10;99.90;;;;;;6289728;22;20420;-85
2022/07/01 03:29:41;;;;;;;80.03;49.37;;;17.10;99.90;;;;;;6316471;22;20369;-85
2022/07/01 03:32:08;;;;;;;78.37;48.07;;;17.10;99.90;;;;;;6316409;22;20408;-85
2022/07/01 03:34:52;;;;;;;81.40;57.77;;;16.90;99.90;;;;;;6289367;22;20412;-85
2022/07/01 03:37:20;;;;;;;83.33;63.03;;;16.90;99.90;;;;;;6316226;22;20391;-84
2022/07/01 03:39:46;;;;;;;81.83;58.90;;;16.90;99.90;;;;;;6316667;22;20371;-85
2022/07/01 03:42:11;;;;;;;88.20;71.33;;;16.90;99.90;;;;;;6316080;22;20686;-84
2022/07/01 03:44:37;;;;;;;87.60;66.83;;;17.00;99.90;;;;;;6315796;22;20425;-85
2022/07/01 03:47:05;;;;;;;83.63;61.97;;;17.00;99.90;;;;;;6316274;22;20237;-85
2022/07/01 03:49:31;;;;;;;81.93;59.67;;;17.00;99.90;;;;;;6288703;22;20451;-85
2022/07/01 03:51:57;;;;;;;80.83;54.53;;;17.00;99.90;;;;;;6288418;22;20443;-85
2022/07/01 03:54:38;;;;;;;80.27;52.83;;;17.00;99.90;;;;;;6287912;22;20382;-85
2022/07/01 03:57:09;;;;;;;81.80;57.47;;;17.00;99.90;;;;;;6316245;22;20236;-85
2022/07/01 03:59:39;;;;;;;83.17;59.50;;;17.10;99.90;;;;;;6288720;22;20373;-85
2022/07/01 04:02:06;;;;;;;85.13;59.97;;;17.00;99.90;;;;;;6316082;22;20373;-85
2022/07/01 04:04:32;;;;;;;80.80;55.77;;;17.10;99.90;;;;;;6315851;22;20456;-85
2022/07/01 04:06:59;;;;;;;78.33;45.47;;;17.10;99.90;;;;;;6315423;22;20382;-85
2022/07/01 04:09:26;;;;;;;82.67;53.00;;;17.10;99.90;;;;;;6315986;22;20369;-85
2022/07/01 04:11:53;;;;;;;80.83;56.13;;;17.10;99.90;;;;;;6315881;22;20404;-85
2022/07/01 04:14:19;;;;;;;80.60;50.70;;;17.00;99.90;;;;;;6314709;22;20735;-85
2022/07/01 04:16:45;;;;;;;86.80;62.87;;;17.00;99.90;;;;;;6315441;22;20437;-85
2022/07/01 04:19:13;;;;;;;83.40;62.50;;;17.00;99.90;;;;;;6289052;22;20880;-85
2022/07/01 04:24:24;;;;;;;81.43;53.93;;;17.00;99.90;;;;;;6321011;22;20431;-85
2022/07/01 04:26:50;;;;;;;81.43;55.87;;;16.90;99.90;;;;;;6314912;22;20412;-85
2022/07/01 04:29:16;;;;;;;77.60;48.47;;;16.90;99.90;;;;;;6316067;22;20361;-84
2022/07/01 04:31:42;;;;;;;80.43;55.53;;;17.00;99.90;;;;;;6315311;22;20428;-85
2022/07/01 04:34:08;;;;;;;83.43;53.70;;;17.00;99.90;;;;;;6288791;22;20143;-85
2022/07/01 04:36:34;;;;;;;80.67;54.10;;;17.00;99.90;;;;;;6315425;22;20907;-85
2022/07/01 04:39:01;;;;;;;80.13;48.90;;;17.00;99.90;;;;;;6316539;22;20361;-85
2022/07/01 04:44:11;;;;;;;75.27;36.17;;;17.00;99.90;;;;;;6316202;22;20361;-85
2022/07/01 04:46:37;;;;;;;79.53;51.10;;;16.90;99.90;;;;;;6314937;22;20385;-85
2022/07/01 04:49:03;;;;;;;81.73;52.23;;;16.80;99.90;;;;;;6315854;22;20143;-85
2022/07/01 04:51:29;;;;;;;81.23;54.43;;;16.80;99.90;;;;;;6288239;22;20370;-86
2022/07/01 04:53:55;;;;;;;80.73;48.07;;;16.90;99.90;;;;;;6315647;22;20372;-85
2022/07/01 04:56:21;;;;;;;81.13;55.10;;;16.70;99.90;;;;;;6287830;22;20377;-86
2022/07/01 04:58:48;;;;;;;84.93;57.50;;;16.70;99.90;;;;;;6287725;22;20167;-86
2022/07/01 05:01:14;;;;;;;78.40;47.57;;;16.70;99.90;;;;;;6262549;22;20758;-85
2022/07/01 05:03:39;;;;;;;78.27;45.73;;;16.70;99.90;;;;;;6315067;22;20365;-85
2022/07/01 05:06:05;;;;;;;79.47;49.73;;;16.60;99.90;;;;;;6315697;22;20358;-85
2022/07/01 05:08:32;;;;;;;85.37;44.73;;;16.70;99.90;;;;;;6314619;22;20162;-85
2022/07/01 05:10:58;;;;;;;77.13;44.60;;;16.80;99.90;;;;;;6315002;22;20149;-85
2022/07/01 05:13:23;;;;;;;79.03;46.17;;;16.80;99.90;;;;;;6314631;22;20440;-84
2022/07/01 05:15:49;;;;;;;76.90;43.50;;;16.90;99.90;;;;;;6314716;22;20138;-87
2022/07/01 05:23:43;;;;;;;77.63;44.60;;;17.10;99.90;;;;;;6315292;22;20701;-84
2022/07/01 05:26:09;;;;;;;82.00;39.97;;;17.20;99.90;;;;;;6314801;22;20401;-86
2022/07/01 05:28:34;;;;;;;73.00;34.20;;;17.20;99.90;;;;;;6314791;22;20161;-86
2022/07/01 05:31:00;;;;;;;79.57;50.40;;;17.30;99.90;;;;;;6286657;22;20254;-87
2022/07/01 05:33:26;;;;;;;77.70;44.67;;;17.30;99.90;;;;;;6313678;22;20146;-86
2022/07/01 05:35:53;;;;;;;81.27;47.87;;;17.30;99.90;;;;;;6313649;22;20143;-86
2022/07/01 05:38:19;;;;;;;76.40;42.70;;;17.10;99.90;;;;;;6314395;22;20838;-86
2022/07/01 05:40:44;;;;;;;80.50;47.00;;;17.10;99.90;;;;;;6314079;22;20400;-86
2022/07/01 05:43:11;;;;;;;81.17;50.50;;;17.20;99.90;;;;;;6285582;22;20149;-86
2022/07/01 05:45:37;;;;;;;91.27;41.73;;;17.20;99.90;;;;;;6314227;22;20134;-86
2022/07/01 05:48:03;;;;;;;81.10;48.70;;;17.20;99.90;;;;;;6314107;22;20405;-86
2022/07/01 05:50:29;;;;;;;73.70;29.33;;;17.30;99.90;;;;;;6314276;22;20452;-87
2022/07/01 05:52:54;;;;;;;75.27;25.00;;;17.40;99.90;;;;;;6318936;22;20381;-87
2022/07/01 05:55:20;;;;;;;75.47;31.03;;;17.40;99.90;;;;;;6316752;22;20369;-86
2022/07/01 05:57:46;;;;;;;75.83;38.93;;;17.50;99.90;;;;;;6315698;22;20158;-87
2022/07/01 06:00:15;;;;;;;73.83;31.53;;;17.60;99.90;;;;;;6317321;22;20372;-87
2022/07/01 06:02:40;;;;;;;72.67;30.53;;;17.70;99.90;;;;;;6289350;22;20174;-86
2022/07/01 06:05:06;;;;;;;77.80;31.70;;;17.80;99.90;;;;;;6317737;22;20353;-86
2022/07/01 06:07:32;;;;;;;74.20;30.40;;;17.80;99.90;;;;;;6316628;22;20181;-86
2022/07/01 06:09:57;;;;;;;75.17;28.20;;;17.90;99.90;;;;;;6317699;22;20392;-86
2022/07/01 06:12:23;;;;;;;71.03;25.00;;;18.00;99.90;;;;;;6291277;22;20623;-86
2022/07/01 06:14:49;;;;;;;72.07;26.47;;;18.00;99.90;;;;;;6317977;22;20139;-85
2022/07/01 06:17:16;;;;;;;73.87;28.17;;;18.00;99.90;;;;;;6318696;22;20409;-86
2022/07/01 06:19:41;;;;;;;78.57;25.77;;;17.90;99.90;;;;;;6321703;22;20139;-83
2022/07/01 06:22:07;;;;;;;74.77;33.23;;;17.90;99.90;;;;;;6325306;22;20431;-83
2022/07/01 06:24:33;;;;;;;75.07;28.20;;;17.80;99.90;;;;;;6325436;22;20151;-84
2022/07/01 06:26:59;;;;;;;76.90;29.70;;;17.90;99.90;;;;;;6297880;22;20162;-84
2022/07/01 06:29:27;;;;;;;73.90;25.83;;;18.00;99.90;;;;;;6324134;22;20224;-83
2022/07/01 06:31:53;;;;;;;73.80;30.30;;;18.00;99.90;;;;;;6298748;22;20381;-83
2022/07/01 06:34:19;;;;;;;73.73;32.43;;;17.90;99.90;;;;;;6323373;22;20905;-83
2022/07/01 06:36:44;;;;;;;72.37;27.97;;;18.10;99.90;;;;;;6295300;22;20546;-83
2022/07/01 06:39:10;;;;;;;74.80;31.60;;;18.20;99.90;;;;;;6293651;22;20931;-85
2022/07/01 06:41:38;;;;;;;72.07;26.50;;;18.10;99.90;;;;;;6319367;22;20162;-85
2022/07/01 06:44:04;;;;;;;72.67;28.50;;;18.20;99.90;;;;;;6318240;22;20139;-85
2022/07/01 06:46:31;;;;;;;73.37;29.33;;;18.20;99.90;;;;;;6291627;22;20464;-86
2022/07/01 06:48:58;;;;;;;71.77;22.43;;;18.20;99.90;;;;;;6317971;22;20135;-85
2022/07/01 06:51:24;;;;;;;69.80;20.97;;;18.30;99.90;;;;;;6290942;22;20374;-85
2022/07/01 06:53:50;;;;;;;72.87;20.10;;;18.30;99.90;;;;;;6318625;22;20366;-85
2022/07/01 06:56:16;;;;;;;70.90;21.77;;;18.20;99.90;;;;;;6318206;22;20419;-85
2022/07/01 06:58:43;;;;;;;71.07;24.50;;;18.10;99.90;;;;;;6290028;22;20377;-86
2022/07/01 07:01:09;;;;;;;72.63;24.23;;;18.20;99.90;;;;;;6317110;22;20404;-85
2022/07/01 07:03:34;;;;;;;70.70;22.27;;;18.30;99.90;;;;;;6290022;22;20374;-86
2022/07/01 07:06:01;;;;;;;70.00;18.67;;;18.20;99.90;;;;;;6290892;22;20415;-85
2022/07/01 07:08:28;;;;;;;71.07;20.03;;;18.20;99.90;;;;;;6315308;22;20495;-85
2022/07/01 07:10:54;;;;;;;71.97;24.50;;;18.10;99.90;;;;;;6317918;22;20357;-85
2022/07/01 07:13:19;;;;;;;73.57;29.00;;;18.10;99.90;;;;;;6290503;22;20373;-85
2022/07/01 07:15:45;;;;;;;70.90;23.23;;;18.10;99.90;;;;;;6289170;22;20210;-85
2022/07/01 07:18:12;;;;;;;70.83;23.57;;;18.10;99.90;;;;;;6317758;22;20162;-85
2022/07/01 07:20:38;;;;;;;72.67;26.77;;;18.10;99.90;;;;;;6316421;22;20399;-85
2022/07/01 07:23:04;;;;;;;69.37;19.50;;;18.20;99.90;;;;;;6318031;22;20436;-85
2022/07/01 07:25:30;;;;;;;73.13;20.97;;;18.20;99.90;;;;;;6325222;22;20757;-85
2022/07/01 07:27:56;;;;;;;78.10;29.23;;;18.10;99.90;;;;;;6319806;22;20374;-85
2022/07/01 07:30:28;;;;;;;71.40;21.57;;;18.00;99.90;;;;;;6318919;22;20358;-85
2022/07/01 07:32:54;;;;;;;71.80;22.03;;;18.20;99.90;;;;;;6318538;22;20130;-85
2022/07/01 07:35:19;;;;;;;71.93;21.90;;;18.30;99.90;;;;;;6317933;22;20366;-85
2022/07/01 07:37:45;;;;;;;73.60;26.77;;;18.30;99.90;;;;;;6290990;22;20477;-85
2022/07/01 07:40:14;;;;;;;71.40;19.87;;;18.40;99.90;;;;;;6318038;22;20139;-85
2022/07/01 07:42:40;;;;;;;68.90;19.20;;;18.40;99.90;;;;;;6317954;22;20162;-85
2022/07/01 07:45:07;;;;;;;69.00;18.07;;;18.50;99.90;;;;;;6317987;22;20358;-85
2022/07/01 07:47:36;;;;;;;69.20;17.40;;;18.50;99.90;;;;;;6317907;22;20373;-85
2022/07/01 07:50:02;;;;;;;68.33;15.00;;;18.70;99.90;;;;;;6317985;22;20384;-85
2022/07/01 07:52:28;;;;;;;69.37;17.73;;;18.70;99.90;;;;;;6318176;22;20361;-84
2022/07/01 07:54:54;;;;;;;68.73;16.07;;;18.60;99.90;;;;;;6318061;22;20682;-85
2022/07/01 07:57:20;;;;;;;70.27;14.60;;;18.70;99.90;;;;;;6317359;22;20166;-85
2022/07/01 07:59:46;;;;;;;66.30;8.47;;;18.60;99.90;;;;;;6316918;22;20358;-85
2022/07/01 08:02:12;;;;;;;70.90;18.10;;;18.60;99.90;;;;;;6289988;22;20558;-85
2022/07/01 08:04:38;;;;;;;67.93;7.60;;;18.50;99.90;;;;;;6316800;22;20165;-85
2022/07/01 08:07:03;;;;;;;66.87;8.53;;;18.60;99.90;;;;;;6288349;22;20394;-84
2022/07/01 08:09:29;;;;;;;66.90;6.40;;;18.70;99.90;;;;;;6316074;22;20445;-84
2022/07/01 08:11:55;;;;;;;69.53;10.97;;;18.70;99.90;;;;;;6315209;22;20170;-84
2022/07/01 08:14:20;;;;;;;68.80;10.70;;;18.70;99.90;;;;;;6316903;22;20139;-85
2022/07/01 08:16:46;;;;;;;70.77;13.97;;;18.90;99.90;;;;;;6289455;22;20162;-84
2022/07/01 08:19:12;;;;;;;72.40;7.07;;;19.00;99.90;;;;;;6316420;22;20162;-84
2022/07/01 08:21:37;;;;;;;68.07;5.83;;;19.00;99.90;;;;;;6289088;22;20167;-84
2022/07/01 08:24:04;;;;;;;72.83;5.97;;;19.10;99.10;;;;;;6310853;22;20139;-83
2022/07/01 08:26:30;;;;;;;66.90;4.80;;;19.20;99.90;;;;;;6315826;22;20144;-83
2022/07/01 08:28:56;;;;;;;72.00;3.70;;;19.40;97.90;;;;;;6316655;22;20403;-84
2022/07/01 08:31:22;;;;;;;69.20;3.97;;;19.30;87.10;;;;;;6316117;22;20342;-83
2022/07/01 08:33:47;;;;;;;68.20;4.57;;;19.20;94.40;;;;;;6315360;22;20363;-84
2022/07/01 08:36:13;;;;;;;65.00;4.67;;;19.40;98.20;;;;;;6316463;22;20146;-84
2022/07/01 08:38:40;;;;;;;65.60;3.77;;;19.30;97.00;;;;;;6315210;22;20201;-83
2022/07/01 08:41:09;;;;;;;65.37;3.57;;;19.40;97.00;;;;;;6315093;22;20527;-84
2022/07/01 08:43:35;;;;;;;66.10;3.73;;;19.60;92.30;;;;;;6315588;22;20393;-84
2022/07/01 08:46:02;;;;;;;65.33;4.27;;;19.80;85.80;;;;;;6315399;22;20383;-83
2022/07/01 08:48:29;;;;;;;66.97;4.43;;;19.90;80.30;;;;;;6314313;22;20440;-83
2022/07/01 08:50:55;;;;;;;67.47;4.40;;;20.00;86.70;;;;;;6289405;22;20370;-83
2022/07/01 08:53:22;;;;;;;66.60;5.07;;;20.00;82.20;;;;;;6256751;22;20359;-82
2022/07/01 08:58:32;;;;;;;67.50;6.27;;;20.10;77.90;;;;;;6282601;22;20166;-83
2022/07/01 09:01:20;;;;;;;66.17;5.97;;;20.20;69.70;;;;;;6256013;22;20490;-84
2022/07/01 09:03:47;;;;;;;68.23;8.10;;;20.30;69.20;;;;;;6282783;22;20343;-84
2022/07/01 09:06:18;;;;;;;67.87;7.30;;;20.50;58.30;;;;;;6283674;22;20672;-84
2022/07/01 09:08:44;;;;;;;67.47;6.23;;;20.50;54.30;;;;;;6284176;22;20381;-83
2022/07/01 09:11:15;;;;;;;68.00;7.30;;;20.60;50.50;;;;;;6284503;22;20448;-83
2022/07/01 09:13:44;;;;;;;69.00;8.93;;;20.70;52.40;;;;;;6256778;22;20376;-83
2022/07/01 09:16:15;;;;;;;66.97;5.67;;;20.80;56.70;;;;;;6285237;22;20373;-83
2022/07/01 09:18:42;;;;;;;66.70;5.33;;;20.90;45.30;;;;;;6285115;22;20869;-84
2022/07/01 09:21:13;;;;;;;69.27;5.83;;;20.90;44.00;;;;;;6281799;22;20437;-83
2022/07/01 09:23:39;;;;;;;67.30;5.47;;;20.90;46.80;;;;;;6282607;22;20345;-83
2022/07/01 09:26:05;;;;;;;68.50;4.90;;;20.80;47.40;;;;;;6283815;22;20391;-84
2022/07/01 09:28:30;;;;;;;66.80;5.57;;;20.80;46.40;;;;;;6283268;22;20408;-83
2022/07/01 09:30:58;;;;;;;67.40;5.47;;;20.80;37.50;;;;;;6254771;22;20149;-83
2022/07/01 09:33:26;;;;;;;68.00;5.30;;;20.80;42.00;;;;;;6281412;22;20660;-83
2022/07/01 09:35:52;;;;;;;66.87;5.50;;;20.90;46.80;;;;;;6282495;22;20361;-84
2022/07/01 09:38:20;;;;;;;67.80;5.50;;;21.10;45.60;;;;;;6255550;22;20405;-84
2022/07/01 09:40:54;;;;;;;66.87;6.40;;;21.10;40.30;;;;;;6285133;22;20363;-84
2022/07/01 09:43:26;;;;;;;66.87;4.50;;;21.10;36.00;;;;;;6257126;22;20382;-84
2022/07/01 09:45:59;;;;;;;67.17;6.27;;;21.00;39.40;;;;;;6284876;22;20373;-84
2022/07/01 09:48:46;;;;;;;69.83;6.70;;;20.90;27.70;;;;;;6255341;22;20394;-83
2022/07/01 09:51:13;;;;;;;69.57;6.53;;;21.00;30.20;;;;;;6257884;22;20378;-84
2022/07/01 09:53:39;;;;;;;67.60;5.63;;;20.90;29.80;;;;;;6283997;22;20417;-84
2022/07/01 09:56:05;;;;;;;68.77;6.70;;;20.90;24.60;;;;;;6285200;22;20394;-84
2022/07/01 09:58:32;;;;;;;69.50;5.97;;;21.00;27.40;;;;;;6285288;22;20414;-84
2022/07/01 10:00:58;;;;;;;68.87;6.90;;;21.30;35.80;;;;;;6285991;22;20366;-84
2022/07/01 10:03:26;;;;;;;67.37;6.10;;;21.50;29.10;;;;;;6286462;22;20446;-84
2022/07/01 10:06:07;;;;;;;68.70;6.90;;;21.50;27.50;;;;;;6286078;22;20358;-84
2022/07/01 10:08:58;;;;;;;67.50;3.63;;;21.80;32.00;;;;;;6284493;22;20392;-84
2022/07/01 10:11:42;;;;;;;68.03;6.40;;;22.30;17.20;;;;;;6286080;22;20362;-85
2022/07/01 10:14:11;;;;;;;69.20;3.27;;;22.40;23.00;;;;;;6286569;22;20357;-84
2022/07/01 10:16:38;;;;;;;70.40;2.87;;;22.50;1.90;;;;;;6286611;22;20378;-84
2022/07/01 10:19:24;;;;;;;68.90;3.10;;;22.60;14.40;;;;;;6287220;22;20381;-84
2022/07/01 10:21:56;;;;;;;66.50;2.83;;;22.70;4.10;;;;;;6287407;22;20401;-84
2022/07/01 10:24:24;;;;;;;66.07;2.80;;;22.90;5.40;;;;;;6283510;22;20379;-84
2022/07/01 10:26:50;;;;;;;67.57;4.10;;;23.40;3.60;;;;;;6287138;22;20370;-84
2022/07/01 10:29:38;;;;;;;68.07;5.63;;;23.80;1.00;;;;;;6287458;22;20449;-84
2022/07/01 10:32:25;;;;;;;72.10;5.50;;;24.10;1.00;;;;;;6287958;22;20346;-84
2022/07/01 10:35:03;;;;;;;70.27;5.80;;;24.20;1.00;;;;;;6287800;22;20350;-83
2022/07/01 10:37:29;;;;;;;67.90;5.87;;;24.20;1.00;;;;;;6287862;22;20386;-84
2022/07/01 10:40:00;;;;;;;69.30;3.70;;;23.90;1.00;;;;;;6286748;22;20385;-85
2022/07/01 10:42:58;;;;;;;69.20;3.90;;;23.60;1.00;;;;;;6258746;22;20197;-84
2022/07/01 10:45:24;;;;;;;67.57;3.67;;;23.40;1.00;;;;;;6288090;22;20351;-83
2022/07/01 10:48:20;;;;;;;69.50;3.83;;;23.10;1.00;;;;;;6288573;22;20702;-84
2022/07/01 10:50:50;;;;;;;67.33;4.30;;;22.90;1.00;;;;;;6291099;22;20124;-84
2022/07/01 10:53:19;;;;;;;67.57;4.20;;;23.20;1.00;;;;;;6288893;22;20358;-84
2022/07/01 10:55:47;;;;;;;67.87;5.20;;;23.50;1.00;;;;;;6260220;22;20374;-83
2022/07/01 10:58:13;;;;;;;68.43;4.10;;;23.80;1.00;;;;;;6262240;22;20398;-83
2022/07/01 11:00:44;;;;;;;66.37;2.60;;;23.70;1.00;;;;;;6262729;22;20702;-84
2022/07/01 11:03:16;;;;;;;69.17;3.23;;;23.60;1.00;;;;;;6262001;22;20410;-83
2022/07/01 11:05:43;;;;;;;66.47;2.70;;;23.70;1.00;;;;;;6286697;22;20343;-84
2022/07/01 11:08:12;;;;;;;67.40;2.60;;;24.00;1.00;;;;;;6287786;22;20410;-83
2022/07/01 11:10:39;;;;;;;67.10;2.63;;;24.10;1.00;;;;;;6260130;22;20381;-83
2022/07/01 11:13:08;;;;;;;68.37;2.93;;;24.40;1.00;;;;;;6286738;22;20374;-83
2022/07/01 11:15:34;;;;;;;69.50;2.60;;;24.60;1.00;;;;;;6261042;22;20388;-83
2022/07/01 11:18:01;;;;;;;66.93;2.67;;;24.90;1.00;;;;;;6259299;22;20474;-83
2022/07/01 11:20:30;;;;;;;66.50;2.60;;;25.00;1.00;;;;;;6286125;22;20350;-83
2022/07/01 11:23:07;;;;;;;67.00;2.50;;;25.10;1.00;;;;;;6259182;22;20445;-83
2022/07/01 11:25:36;;;;;;;66.90;3.07;;;25.00;1.00;;;;;;6287251;22;20731;-83
2022/07/01 11:28:05;;;;;;;67.80;3.03;;;25.30;1.00;;;;;;6288245;22;20852;-83
2022/07/01 11:30:30;;;;;;;69.00;2.77;;;25.10;1.00;;;;;;6286018;22;20378;-83
2022/07/01 11:33:00;;;;;;;67.20;3.10;;;25.10;1.00;;;;;;6286830;22;20373;-83
2022/07/01 11:41:08;;;;;;;67.83;3.17;;;24.30;1.00;;;;;;6286662;22;20393;-83
2022/07/01 11:43:36;;;;;;;67.77;3.40;;;24.00;1.00;;;;;;6284838;22;20414;-84
2022/07/01 11:46:04;;;;;;;68.10;2.93;;;23.50;1.00;;;;;;6284747;22;20397;-84
2022/07/01 11:48:42;;;;;;;68.33;3.20;;;23.20;1.00;;;;;;6286070;22;20414;-84
2022/07/01 11:51:14;;;;;;;66.90;3.07;;;23.00;1.00;;;;;;6286991;22;20366;-84
2022/07/01 11:53:51;;;;;;;69.10;3.33;;;23.10;1.00;;;;;;6257770;22;20373;-82
2022/07/01 11:56:27;;;;;;;68.37;3.20;;;23.40;1.00;;;;;;6257093;22;20416;-84
2022/07/01 11:58:55;;;;;;;68.90;3.20;;;23.50;1.00;;;;;;6258368;22;20864;-83
2022/07/01 12:01:30;;;;;;;66.97;2.80;;;23.60;1.00;;;;;;6286619;22;20894;-83
2022/07/01 12:03:59;;;;;;;67.90;3.20;;;23.70;1.00;;;;;;6290389;22;20362;-84
2022/07/01 12:06:25;;;;;;;68.17;2.80;;;24.00;1.00;;;;;;6261370;22;20723;-84
2022/07/01 12:08:56;;;;;;;69.87;2.50;;;24.20;1.00;;;;;;6287266;22;20362;-83
2022/07/01 12:11:23;;;;;;;67.77;3.03;;;24.40;1.00;;;;;;6288058;22;20370;-83
2022/07/01 12:13:49;;;;;;;69.13;2.97;;;24.80;1.00;;;;;;6260171;22;20893;-82
2022/07/01 12:16:15;;;;;;;67.20;2.53;;;25.10;1.00;;;;;;6261125;22;20397;-83
2022/07/01 12:19:00;;;;;;;67.47;2.47;;;25.30;1.00;;;;;;6287255;22;20382;-84
2022/07/01 12:21:27;;;;;;;67.10;2.50;;;25.40;1.00;;;;;;6287730;22;20398;-83
2022/07/01 12:24:11;;;;;;;68.10;2.90;;;25.40;1.00;;;;;;6288549;22;20363;-84
2022/07/01 12:27:02;;;;;;;67.37;2.97;;;25.10;1.00;;;;;;6290188;22;20415;-83
2022/07/01 12:29:30;;;;;;;70.07;3.17;;;24.40;1.00;;;;;;6287037;22;20672;-83
2022/07/01 12:32:00;;;;;;;67.47;2.30;;;24.40;1.00;;;;;;6288628;22;20429;-83
2022/07/01 12:34:44;;;;;;;66.37;2.40;;;24.70;1.00;;;;;;6290194;22;20351;-84
2022/07/01 12:37:34;;;;;;;69.57;2.70;;;25.00;1.00;;;;;;6263685;22;20401;-83
2022/07/01 12:40:08;;;;;;;67.57;2.60;;;25.20;1.00;;;;;;6290603;22;20865;-83
2022/07/01 12:42:42;;;;;;;68.80;3.50;;;25.40;1.00;;;;;;6289965;22;20407;-82
2022/07/01 12:45:11;;;;;;;67.37;3.50;;;25.40;1.00;;;;;;6288979;22;20427;-84
2022/07/01 12:47:38;;;;;;;66.70;3.47;;;25.00;1.00;;;;;;6290719;22;20411;-83
2022/07/01 12:50:20;;;;;;;67.57;3.63;;;24.70;1.00;;;;;;6290428;22;20434;-83
2022/07/01 12:53:01;;;;;;;67.60;3.37;;;24.40;1.00;;;;;;6263560;22;20378;-83
2022/07/01 12:55:47;;;;;;;67.20;3.03;;;24.40;1.00;;;;;;6263045;22;20379;-83
2022/07/01 12:58:19;;;;;;;66.90;2.90;;;24.60;1.00;;;;;;6289524;22;20383;-83